sensor_id;sensor_type;location;lat;lon;timestamp;temperature;humidity
53643;DHT22;39546;45.534;12.048;2023-06-14T00:00:58;23.00;80.60
53643;DHT22;39546;45.534;12.048;2023-06-14T00:07:00;23.00;80.30
53643;DHT22;39546;45.534;12.048;2023-06-14T00:13:03;23.00;80.60
53643;DHT22;39546;45.534;12.048;2023-06-14T00:19:06;23.00;80.50
53643;DHT22;39546;45.534;12.048;2023-06-14T00:25:08;23.10;80.20
53643;DHT22;39546;45.534;12.048;2023-06-14T00:31:10;23.00;80.50
53643;DHT22;39546;45.534;12.048;2023-06-14T00:37:12;23.00;80.90
53643;DHT22;39546;45.534;12.048;2023-06-14T00:43:14;22.90;80.90
53643;DHT22;39546;45.534;12.048;2023-06-14T00:49:19;22.90;80.80
53643;DHT22;39546;45.534;12.048;2023-06-14T00:55:22;22.90;80.50
53643;DHT22;39546;45.534;12.048;2023-06-14T01:01:24;23.00;80.40
53643;DHT22;39546;45.534;12.048;2023-06-14T01:13:43;22.80;80.40
53643;DHT22;39546;45.534;12.048;2023-06-14T01:19:48;22.70;80.20
53643;DHT22;39546;45.534;12.048;2023-06-14T01:25:51;22.80;79.90
53643;DHT22;39546;45.534;12.048;2023-06-14T01:31:57;22.80;79.80
53643;DHT22;39546;45.534;12.048;2023-06-14T01:37:59;22.80;79.70
53643;DHT22;39546;45.534;12.048;2023-06-14T01:44:05;22.80;79.80
53643;DHT22;39546;45.534;12.048;2023-06-14T01:50:08;22.80;79.70
53643;DHT22;39546;45.534;12.048;2023-06-14T01:56:11;22.70;79.80
53643;DHT22;39546;45.534;12.048;2023-06-14T02:02:14;22.60;80.10
53643;DHT22;39546;45.534;12.048;2023-06-14T02:08:16;22.40;80.30
53643;DHT22;39546;45.534;12.048;2023-06-14T02:14:18;22.40;80.30
53643;DHT22;39546;45.534;12.048;2023-06-14T02:20:20;22.40;80.20
53643;DHT22;39546;45.534;12.048;2023-06-14T02:26:22;22.40;80.20
53643;DHT22;39546;45.534;12.048;2023-06-14T02:32:24;22.50;80.10
53643;DHT22;39546;45.534;12.048;2023-06-14T02:38:28;22.50;80.00
53643;DHT22;39546;45.534;12.048;2023-06-14T02:44:32;22.50;79.80
53643;DHT22;39546;45.534;12.048;2023-06-14T02:50:40;22.50;79.90
53643;DHT22;39546;45.534;12.048;2023-06-14T02:56:43;22.40;80.00
53643;DHT22;39546;45.534;12.048;2023-06-14T03:02:45;22.40;79.90
53643;DHT22;39546;45.534;12.048;2023-06-14T03:08:48;22.30;79.90
53643;DHT22;39546;45.534;12.048;2023-06-14T03:14:51;22.20;80.20
53643;DHT22;39546;45.534;12.048;2023-06-14T03:20:54;22.20;80.20
53643;DHT22;39546;45.534;12.048;2023-06-14T03:26:59;22.20;80.20
53643;DHT22;39546;45.534;12.048;2023-06-14T03:33:02;22.20;80.20
53643;DHT22;39546;45.534;12.048;2023-06-14T03:39:05;22.20;80.10
53643;DHT22;39546;45.534;12.048;2023-06-14T03:45:07;22.20;80.00
53643;DHT22;39546;45.534;12.048;2023-06-14T03:51:10;22.20;80.10
53643;DHT22;39546;45.534;12.048;2023-06-14T03:57:13;22.10;80.10
53643;DHT22;39546;45.534;12.048;2023-06-14T04:03:17;22.10;80.20
53643;DHT22;39546;45.534;12.048;2023-06-14T04:09:19;22.10;80.30
53643;DHT22;39546;45.534;12.048;2023-06-14T04:15:21;22.10;80.10
53643;DHT22;39546;45.534;12.048;2023-06-14T04:21:24;22.10;80.30
53643;DHT22;39546;45.534;12.048;2023-06-14T04:27:32;22.10;80.20
53643;DHT22;39546;45.534;12.048;2023-06-14T04:33:39;22.20;80.10
53643;DHT22;39546;45.534;12.048;2023-06-14T04:39:45;22.20;80.30
53643;DHT22;39546;45.534;12.048;2023-06-14T04:45:48;22.20;80.50
53643;DHT22;39546;45.534;12.048;2023-06-14T04:51:50;22.30;80.40
53643;DHT22;39546;45.534;12.048;2023-06-14T04:57:59;22.40;80.50
53643;DHT22;39546;45.534;12.048;2023-06-14T05:04:02;22.50;80.50
53643;DHT22;39546;45.534;12.048;2023-06-14T05:10:05;22.60;80.60
53643;DHT22;39546;45.534;12.048;2023-06-14T05:16:08;22.70;80.90
53643;DHT22;39546;45.534;12.048;2023-06-14T05:22:10;22.70;81.00
53643;DHT22;39546;45.534;12.048;2023-06-14T05:28:12;22.90;80.70
53643;DHT22;39546;45.534;12.048;2023-06-14T05:34:14;22.90;80.60
53643;DHT22;39546;45.534;12.048;2023-06-14T05:40:16;23.00;80.50
53643;DHT22;39546;45.534;12.048;2023-06-14T05:46:19;23.00;80.60
53643;DHT22;39546;45.534;12.048;2023-06-14T05:52:26;23.10;80.70
53643;DHT22;39546;45.534;12.048;2023-06-14T05:58:28;23.00;80.90
53643;DHT22;39546;45.534;12.048;2023-06-14T06:04:30;23.00;81.10
53643;DHT22;39546;45.534;12.048;2023-06-14T06:10:32;23.00;81.00
53643;DHT22;39546;45.534;12.048;2023-06-14T06:16:34;23.10;81.10
53643;DHT22;39546;45.534;12.048;2023-06-14T06:22:37;23.00;81.30
53643;DHT22;39546;45.534;12.048;2023-06-14T06:28:40;23.10;81.30
53643;DHT22;39546;45.534;12.048;2023-06-14T06:34:42;23.30;81.40
53643;DHT22;39546;45.534;12.048;2023-06-14T06:40:44;23.30;80.70
53643;DHT22;39546;45.534;12.048;2023-06-14T06:46:46;23.30;80.90
53643;DHT22;39546;45.534;12.048;2023-06-14T06:52:49;23.60;81.00
53643;DHT22;39546;45.534;12.048;2023-06-14T06:58:51;23.60;80.90
53643;DHT22;39546;45.534;12.048;2023-06-14T07:04:53;23.80;80.70
53643;DHT22;39546;45.534;12.048;2023-06-14T07:10:55;23.90;80.10
53643;DHT22;39546;45.534;12.048;2023-06-14T07:16:57;24.00;80.30
53643;DHT22;39546;45.534;12.048;2023-06-14T07:22:59;24.20;80.30
53643;DHT22;39546;45.534;12.048;2023-06-14T07:29:01;24.30;79.70
53643;DHT22;39546;45.534;12.048;2023-06-14T07:35:05;24.40;78.80
53643;DHT22;39546;45.534;12.048;2023-06-14T07:41:09;24.40;78.70
53643;DHT22;39546;45.534;12.048;2023-06-14T07:47:11;24.50;79.10
53643;DHT22;39546;45.534;12.048;2023-06-14T07:53:13;24.70;78.70
53643;DHT22;39546;45.534;12.048;2023-06-14T07:59:15;24.80;78.90
53643;DHT22;39546;45.534;12.048;2023-06-14T08:05:17;24.90;77.80
53643;DHT22;39546;45.534;12.048;2023-06-14T08:11:19;24.80;76.30
53643;DHT22;39546;45.534;12.048;2023-06-14T08:17:22;24.90;76.10
53643;DHT22;39546;45.534;12.048;2023-06-14T08:23:24;25.00;76.80
53643;DHT22;39546;45.534;12.048;2023-06-14T08:29:26;24.90;77.40
53643;DHT22;39546;45.534;12.048;2023-06-14T08:35:31;24.80;77.10
53643;DHT22;39546;45.534;12.048;2023-06-14T08:41:33;24.80;77.10
53643;DHT22;39546;45.534;12.048;2023-06-14T08:47:36;25.00;76.30
53643;DHT22;39546;45.534;12.048;2023-06-14T08:53:39;25.30;75.20
53643;DHT22;39546;45.534;12.048;2023-06-14T08:59:47;25.60;73.40
53643;DHT22;39546;45.534;12.048;2023-06-14T09:05:57;25.80;72.00
53643;DHT22;39546;45.534;12.048;2023-06-14T09:12:00;25.90;71.80
53643;DHT22;39546;45.534;12.048;2023-06-14T09:18:02;26.10;71.60
53643;DHT22;39546;45.534;12.048;2023-06-14T09:24:04;26.30;73.60
53643;DHT22;39546;45.534;12.048;2023-06-14T09:30:09;26.30;74.60
53643;DHT22;39546;45.534;12.048;2023-06-14T09:36:13;26.30;74.20
53643;DHT22;39546;45.534;12.048;2023-06-14T09:42:18;26.30;73.60
53643;DHT22;39546;45.534;12.048;2023-06-14T09:48:25;26.40;71.80
53643;DHT22;39546;45.534;12.048;2023-06-14T09:54:28;26.60;72.70
53643;DHT22;39546;45.534;12.048;2023-06-14T10:00:31;26.80;73.30
53643;DHT22;39546;45.534;12.048;2023-06-14T10:06:40;26.90;72.80
53643;DHT22;39546;45.534;12.048;2023-06-14T10:12:43;27.20;72.20
53643;DHT22;39546;45.534;12.048;2023-06-14T10:25:02;27.30;73.40
53643;DHT22;39546;45.534;12.048;2023-06-14T10:31:10;27.50;73.50
53643;DHT22;39546;45.534;12.048;2023-06-14T10:37:13;27.60;71.80
53643;DHT22;39546;45.534;12.048;2023-06-14T10:43:24;27.80;70.90
53643;DHT22;39546;45.534;12.048;2023-06-14T10:55:49;27.80;68.40
53643;DHT22;39546;45.534;12.048;2023-06-14T11:02:21;27.80;67.50
53643;DHT22;39546;45.534;12.048;2023-06-14T11:15:09;28.40;68.90
53643;DHT22;39546;45.534;12.048;2023-06-14T11:21:40;28.30;68.70
53643;DHT22;39546;45.534;12.048;2023-06-14T11:27:43;28.60;66.80
53643;DHT22;39546;45.534;12.048;2023-06-14T11:33:49;28.80;66.90
53643;DHT22;39546;45.534;12.048;2023-06-14T11:39:52;29.10;65.70
53643;DHT22;39546;45.534;12.048;2023-06-14T11:45:54;29.30;64.40
53643;DHT22;39546;45.534;12.048;2023-06-14T11:51:56;29.40;63.90
53643;DHT22;39546;45.534;12.048;2023-06-14T11:57:58;29.00;66.50
53643;DHT22;39546;45.534;12.048;2023-06-14T12:04:28;28.90;66.00
53643;DHT22;39546;45.534;12.048;2023-06-14T12:10:42;29.20;68.40
53643;DHT22;39546;45.534;12.048;2023-06-14T12:16:45;29.40;64.80
53643;DHT22;39546;45.534;12.048;2023-06-14T12:22:55;29.40;67.00
53643;DHT22;39546;45.534;12.048;2023-06-14T12:29:00;29.10;66.70
53643;DHT22;39546;45.534;12.048;2023-06-14T12:35:02;29.10;65.90
53643;DHT22;39546;45.534;12.048;2023-06-14T12:41:04;29.10;64.40
53643;DHT22;39546;45.534;12.048;2023-06-14T12:47:07;28.80;63.10
53643;DHT22;39546;45.534;12.048;2023-06-14T12:53:09;28.90;64.30
53643;DHT22;39546;45.534;12.048;2023-06-14T12:59:12;29.10;62.60
53643;DHT22;39546;45.534;12.048;2023-06-14T13:05:14;29.40;61.30
53643;DHT22;39546;45.534;12.048;2023-06-14T13:11:23;29.50;61.00
53643;DHT22;39546;45.534;12.048;2023-06-14T13:18:04;29.50;59.30
53643;DHT22;39546;45.534;12.048;2023-06-14T13:24:17;29.60;59.30
53643;DHT22;39546;45.534;12.048;2023-06-14T13:30:25;29.50;59.20
53643;DHT22;39546;45.534;12.048;2023-06-14T13:36:27;29.50;59.20
53643;DHT22;39546;45.534;12.048;2023-06-14T13:42:29;29.50;57.70
53643;DHT22;39546;45.534;12.048;2023-06-14T13:48:32;29.60;58.40
53643;DHT22;39546;45.534;12.048;2023-06-14T13:54:35;29.60;62.70
53643;DHT22;39546;45.534;12.048;2023-06-14T14:00:37;29.40;60.50
53643;DHT22;39546;45.534;12.048;2023-06-14T14:06:42;29.50;58.80
53643;DHT22;39546;45.534;12.048;2023-06-14T14:12:47;29.40;57.90
53643;DHT22;39546;45.534;12.048;2023-06-14T14:18:49;29.30;62.50
53643;DHT22;39546;45.534;12.048;2023-06-14T14:24:52;28.90;61.90
53643;DHT22;39546;45.534;12.048;2023-06-14T14:30:54;28.80;61.20
53643;DHT22;39546;45.534;12.048;2023-06-14T14:36:56;28.80;61.60
53643;DHT22;39546;45.534;12.048;2023-06-14T14:42:58;28.80;62.20
53643;DHT22;39546;45.534;12.048;2023-06-14T14:49:00;28.90;61.70
53643;DHT22;39546;45.534;12.048;2023-06-14T14:55:02;29.00;61.60
53643;DHT22;39546;45.534;12.048;2023-06-14T15:01:05;29.00;60.40
53643;DHT22;39546;45.534;12.048;2023-06-14T15:07:07;29.00;60.00
53643;DHT22;39546;45.534;12.048;2023-06-14T15:13:32;29.00;63.00
53643;DHT22;39546;45.534;12.048;2023-06-14T15:19:34;28.90;60.40
53643;DHT22;39546;45.534;12.048;2023-06-14T15:25:37;28.80;62.00
53643;DHT22;39546;45.534;12.048;2023-06-14T15:31:39;28.80;62.10
53643;DHT22;39546;45.534;12.048;2023-06-14T15:37:41;29.00;62.40
53643;DHT22;39546;45.534;12.048;2023-06-14T15:43:44;28.90;61.00
53643;DHT22;39546;45.534;12.048;2023-06-14T15:49:47;29.10;60.00
53643;DHT22;39546;45.534;12.048;2023-06-14T15:55:49;29.10;59.00
53643;DHT22;39546;45.534;12.048;2023-06-14T16:01:52;29.20;57.50
53643;DHT22;39546;45.534;12.048;2023-06-14T16:07:55;29.20;57.20
53643;DHT22;39546;45.534;12.048;2023-06-14T16:13:57;29.20;57.40
53643;DHT22;39546;45.534;12.048;2023-06-14T16:19:59;29.00;57.50
53643;DHT22;39546;45.534;12.048;2023-06-14T16:26:02;28.90;57.50
53643;DHT22;39546;45.534;12.048;2023-06-14T16:32:46;28.80;58.10
53643;DHT22;39546;45.534;12.048;2023-06-14T16:38:52;28.80;57.70
53643;DHT22;39546;45.534;12.048;2023-06-14T16:44:54;28.90;57.40
53643;DHT22;39546;45.534;12.048;2023-06-14T16:50:56;28.90;57.40
53643;DHT22;39546;45.534;12.048;2023-06-14T16:56:58;28.80;57.60
53643;DHT22;39546;45.534;12.048;2023-06-14T17:03:00;28.90;56.60
53643;DHT22;39546;45.534;12.048;2023-06-14T17:09:03;28.90;56.50
53643;DHT22;39546;45.534;12.048;2023-06-14T17:15:05;28.80;56.90
53643;DHT22;39546;45.534;12.048;2023-06-14T17:21:07;28.70;56.30
53643;DHT22;39546;45.534;12.048;2023-06-14T17:27:09;28.60;57.40
53643;DHT22;39546;45.534;12.048;2023-06-14T17:33:12;28.50;57.90
53643;DHT22;39546;45.534;12.048;2023-06-14T17:39:14;28.40;58.80
53643;DHT22;39546;45.534;12.048;2023-06-14T17:45:16;28.30;59.70
53643;DHT22;39546;45.534;12.048;2023-06-14T17:51:18;28.20;60.40
53643;DHT22;39546;45.534;12.048;2023-06-14T17:57:22;28.10;61.30
53643;DHT22;39546;45.534;12.048;2023-06-14T18:03:23;27.90;62.00
53643;DHT22;39546;45.534;12.048;2023-06-14T18:09:27;27.80;62.80
53643;DHT22;39546;45.534;12.048;2023-06-14T18:15:29;27.70;63.80
53643;DHT22;39546;45.534;12.048;2023-06-14T18:21:31;27.50;64.40
53643;DHT22;39546;45.534;12.048;2023-06-14T18:27:33;27.50;65.00
53643;DHT22;39546;45.534;12.048;2023-06-14T18:33:35;27.40;65.60
53643;DHT22;39546;45.534;12.048;2023-06-14T18:39:37;27.30;66.00
53643;DHT22;39546;45.534;12.048;2023-06-14T18:45:39;27.20;66.50
53643;DHT22;39546;45.534;12.048;2023-06-14T18:51:41;27.10;67.00
53643;DHT22;39546;45.534;12.048;2023-06-14T18:57:44;27.00;67.50
53643;DHT22;39546;45.534;12.048;2023-06-14T19:03:46;27.00;67.90
53643;DHT22;39546;45.534;12.048;2023-06-14T19:09:48;26.90;68.40
53643;DHT22;39546;45.534;12.048;2023-06-14T19:15:51;26.90;68.70
53643;DHT22;39546;45.534;12.048;2023-06-14T19:21:54;26.80;68.90
53643;DHT22;39546;45.534;12.048;2023-06-14T19:27:57;26.80;69.50
53643;DHT22;39546;45.534;12.048;2023-06-14T19:33:59;26.80;69.70
53643;DHT22;39546;45.534;12.048;2023-06-14T19:40:03;26.60;70.10
53643;DHT22;39546;45.534;12.048;2023-06-14T19:46:06;26.40;70.60
53643;DHT22;39546;45.534;12.048;2023-06-14T19:52:16;26.40;71.40
53643;DHT22;39546;45.534;12.048;2023-06-14T19:58:19;26.30;72.70
53643;DHT22;39546;45.534;12.048;2023-06-14T20:04:21;26.30;72.70
53643;DHT22;39546;45.534;12.048;2023-06-14T20:10:35;26.20;72.70
53643;DHT22;39546;45.534;12.048;2023-06-14T20:16:37;26.10;72.80
53643;DHT22;39546;45.534;12.048;2023-06-14T20:22:39;26.10;72.90
53643;DHT22;39546;45.534;12.048;2023-06-14T20:29:00;26.10;73.00
53643;DHT22;39546;45.534;12.048;2023-06-14T20:35:03;26.10;73.40
53643;DHT22;39546;45.534;12.048;2023-06-14T20:41:30;25.80;73.50
53643;DHT22;39546;45.534;12.048;2023-06-14T20:47:32;25.60;72.50
53643;DHT22;39546;45.534;12.048;2023-06-14T20:53:34;25.40;72.70
53643;DHT22;39546;45.534;12.048;2023-06-14T20:59:40;25.30;72.60
53643;DHT22;39546;45.534;12.048;2023-06-14T21:05:42;25.20;72.60
53643;DHT22;39546;45.534;12.048;2023-06-14T21:11:44;25.10;73.00
53643;DHT22;39546;45.534;12.048;2023-06-14T21:17:46;25.00;73.10
53643;DHT22;39546;45.534;12.048;2023-06-14T21:23:48;25.00;74.00
53643;DHT22;39546;45.534;12.048;2023-06-14T21:29:50;24.90;74.40
53643;DHT22;39546;45.534;12.048;2023-06-14T21:35:54;24.80;75.00
53643;DHT22;39546;45.534;12.048;2023-06-14T21:41:56;24.60;76.00
53643;DHT22;39546;45.534;12.048;2023-06-14T21:47:58;24.00;77.40
53643;DHT22;39546;45.534;12.048;2023-06-14T21:54:00;23.80;77.90
53643;DHT22;39546;45.534;12.048;2023-06-14T22:00:03;23.60;78.50
53643;DHT22;39546;45.534;12.048;2023-06-14T22:06:05;23.50;79.10
53643;DHT22;39546;45.534;12.048;2023-06-14T22:12:09;23.30;79.20
53643;DHT22;39546;45.534;12.048;2023-06-14T22:18:16;23.30;80.30
53643;DHT22;39546;45.534;12.048;2023-06-14T22:24:18;23.20;80.80
53643;DHT22;39546;45.534;12.048;2023-06-14T22:30:20;23.20;80.70
53643;DHT22;39546;45.534;12.048;2023-06-14T22:36:22;23.20;80.60
53643;DHT22;39546;45.534;12.048;2023-06-14T22:42:26;23.20;80.70
53643;DHT22;39546;45.534;12.048;2023-06-14T22:48:28;23.10;80.80
53643;DHT22;39546;45.534;12.048;2023-06-14T22:54:30;23.10;81.00
53643;DHT22;39546;45.534;12.048;2023-06-14T23:00:33;23.10;81.40
53643;DHT22;39546;45.534;12.048;2023-06-14T23:06:35;23.20;81.00
53643;DHT22;39546;45.534;12.048;2023-06-14T23:12:38;23.20;80.80
53643;DHT22;39546;45.534;12.048;2023-06-14T23:18:42;23.00;81.10
53643;DHT22;39546;45.534;12.048;2023-06-14T23:24:44;22.90;81.00
53643;DHT22;39546;45.534;12.048;2023-06-14T23:30:47;22.80;81.30
53643;DHT22;39546;45.534;12.048;2023-06-14T23:36:49;22.90;82.00
53643;DHT22;39546;45.534;12.048;2023-06-14T23:42:51;23.00;82.00
53643;DHT22;39546;45.534;12.048;2023-06-14T23:48:53;23.00;81.90
53643;DHT22;39546;45.534;12.048;2023-06-14T23:54:56;23.10;82.00
